Time;durP1;ratioP1;P1;durP2;ratioP2;P2;SDS_P1;SDS_P2;PMS_P1;PMS_P2;Temp;Humidity;BMP_temperature;BMP_pressure;BME280_temperature;BME280_humidity;BME280_pressure;Samples;Min_cycle;Max_cycle;Signal;HPM_P1;HPM_P2
2021/05/30 00:01:33;;;;;;;3.67;1.40;;;;;;;15.90;65.44;98809.41;5027544;28;20559;-71
2021/05/30 00:04:00;;;;;;;2.53;1.73;;;;;;;15.62;66.82;98808.13;5027583;28;20348;-73
2021/05/30 00:06:29;;;;;;;3.33;1.97;;;;;;;15.68;66.29;98805.41;5029767;28;20226;-73
2021/05/30 00:08:56;;;;;;;4.03;1.50;;;;;;;15.98;64.70;98808.34;5023460;28;20233;-73
2021/05/30 00:11:22;;;;;;;4.33;1.80;;;;;;;15.81;65.69;98805.31;5030737;28;20206;-73
2021/05/30 00:13:52;;;;;;;3.40;2.00;;;;;;;16.10;64.64;98803.91;5022150;28;20222;-72
2021/05/30 00:16:19;;;;;;;2.50;1.60;;;;;;;15.78;66.15;98808.47;5031162;28;20214;-72
2021/05/30 00:18:46;;;;;;;1.90;1.70;;;;;;;15.80;68.07;98800.19;5029591;28;20258;-73
2021/05/30 00:21:12;;;;;;;3.23;1.57;;;;;;;15.68;67.63;98800.00;5030047;28;20213;-73
2021/05/30 00:23:39;;;;;;;2.77;1.60;;;;;;;15.41;69.99;98803.03;5024965;28;20207;-73
2021/05/30 00:26:06;;;;;;;4.37;1.63;;;;;;;15.60;68.79;98794.06;5028057;28;20207;-73
2021/05/30 00:28:33;;;;;;;3.00;1.60;;;;;;;15.61;69.06;98803.78;5028693;28;20309;-72
2021/05/30 00:31:00;;;;;;;2.53;1.60;;;;;;;15.47;69.87;98799.47;5029957;28;20248;-73
2021/05/30 00:33:27;;;;;;;3.00;1.83;;;;;;;15.05;71.90;98791.91;5023493;28;20206;-73
2021/05/30 00:35:54;;;;;;;3.47;1.73;;;;;;;14.78;73.94;98801.03;5028061;28;20215;-74
2021/05/30 00:38:21;;;;;;;2.43;1.63;;;;;;;15.53;69.92;98801.31;5029236;28;20226;-73
2021/05/30 00:40:48;;;;;;;2.10;1.67;;;;;;;15.25;72.17;98803.47;5032126;28;20220;-72
2021/05/30 00:43:14;;;;;;;2.30;1.60;;;;;;;15.30;70.29;98811.72;5033279;28;20203;-72
2021/05/30 00:45:41;;;;;;;2.53;1.90;;;;;;;15.20;71.53;98803.25;5031670;28;20210;-73
2021/05/30 00:48:09;;;;;;;2.70;1.90;;;;;;;15.18;71.77;98808.00;5030864;28;20714;-73
2021/05/30 00:50:36;;;;;;;3.00;2.00;;;;;;;14.98;72.61;98815.28;5032348;28;20209;-72
2021/05/30 00:53:03;;;;;;;4.63;1.97;;;;;;;15.25;70.83;98812.31;5031623;28;20205;-73
2021/05/30 00:55:30;;;;;;;2.47;2.00;;;;;;;14.78;73.08;98817.16;5031219;28;20214;-74
2021/05/30 00:57:57;;;;;;;2.93;1.80;;;;;;;14.77;73.78;98810.13;5028622;28;20227;-74
2021/05/30 01:00:25;;;;;;;5.83;2.10;;;;;;;14.98;72.74;98815.28;5033079;28;20235;-72
2021/05/30 01:02:52;;;;;;;3.37;1.77;;;;;;;14.90;72.39;98808.25;5029267;28;20210;-72
2021/05/30 01:05:19;;;;;;;2.33;1.70;;;;;;;14.98;72.92;98810.75;5031682;28;20249;-72
2021/05/30 01:07:47;;;;;;;1.67;1.57;;;;;;;14.63;74.53;98817.38;5031941;28;20356;-72
2021/05/30 01:10:27;;;;;;;4.07;1.90;;;;;;;15.32;71.13;98815.00;5032699;28;20561;-73
2021/05/30 01:12:54;;;;;;;2.37;1.67;;;;;;;15.11;71.45;98813.41;5030633;28;20250;-72
2021/05/30 01:15:21;;;;;;;2.17;1.83;;;;;;;14.75;73.36;98807.66;5032283;28;20655;-72
2021/05/30 01:17:48;;;;;;;3.43;1.93;;;;;;;14.83;73.00;98820.06;5033000;28;20333;-72
2021/05/30 01:20:17;;;;;;;2.67;1.70;;;;;;;14.97;72.91;98817.16;5031418;28;20310;-72
2021/05/30 01:22:46;;;;;;;2.53;1.80;;;;;;;15.11;71.99;98812.56;5032599;28;20238;-73
2021/05/30 01:25:16;;;;;;;2.50;1.60;;;;;;;15.03;72.01;98807.41;5029596;28;20286;-72
2021/05/30 01:27:43;;;;;;;3.87;1.90;;;;;;;14.81;72.71;98811.38;5033148;28;20210;-71
2021/05/30 01:30:11;;;;;;;4.23;1.60;;;;;;;14.88;73.09;98820.25;5032019;28;20206;-74
2021/05/30 01:32:38;;;;;;;2.90;1.53;;;;;;;14.76;73.77;98814.69;5033386;28;20207;-72
2021/05/30 01:35:07;;;;;;;2.67;1.70;;;;;;;14.69;74.48;98813.06;5035648;28;20622;-72
2021/05/30 01:37:34;;;;;;;2.40;1.70;;;;;;;15.17;72.24;98817.94;5032769;28;20218;-72
2021/05/30 01:40:01;;;;;;;4.03;1.97;;;;;;;14.84;73.58;98819.84;5031571;28;20234;-73
2021/05/30 01:42:28;;;;;;;2.33;1.80;;;;;;;14.59;74.54;98828.75;5031511;28;20199;-72
2021/05/30 01:44:55;;;;;;;2.43;1.73;;;;;;;15.13;72.59;98824.78;5032512;28;20209;-73
2021/05/30 01:47:22;;;;;;;2.57;1.90;;;;;;;14.71;74.49;98832.47;5031786;28;20214;-74
2021/05/30 01:49:49;;;;;;;2.30;1.93;;;;;;;14.97;73.92;98827.06;5030927;28;20237;-72
2021/05/30 01:52:16;;;;;;;2.67;1.77;;;;;;;14.82;73.91;98832.69;5031514;28;20206;-73
2021/05/30 01:54:45;;;;;;;4.20;1.83;;;;;;;15.28;72.17;98825.38;5027421;28;20259;-72
2021/05/30 01:57:12;;;;;;;5.07;2.00;;;;;;;14.91;73.73;98822.53;5033468;28;20232;-72
2021/05/30 01:59:39;;;;;;;5.43;1.93;;;;;;;14.86;74.76;98825.03;5032061;28;20313;-72
2021/05/30 02:02:07;;;;;;;2.20;1.60;;;;;;;15.03;73.87;98818.16;5031276;28;20210;-73
2021/05/30 02:04:39;;;;;;;2.07;1.60;;;;;;;14.81;74.14;98824.81;5028889;28;20282;-73
2021/05/30 02:07:06;;;;;;;2.87;1.80;;;;;;;15.30;72.16;98825.16;5029440;28;20305;-73
2021/05/30 02:09:32;;;;;;;2.77;1.80;;;;;;;15.62;69.88;98830.47;5031222;28;20242;-73
2021/05/30 02:11:59;;;;;;;2.70;1.73;;;;;;;15.53;70.55;98833.59;5032232;28;20202;-72
2021/05/30 02:14:26;;;;;;;2.80;1.80;;;;;;;15.34;71.47;98823.75;5025155;28;20528;-72
2021/05/30 02:16:54;;;;;;;2.40;1.80;;;;;;;15.50;71.41;98826.78;5025854;28;20222;-72
2021/05/30 02:19:21;;;;;;;2.10;1.80;;;;;;;15.16;73.82;98820.84;5030534;28;20226;-72
2021/05/30 02:21:49;;;;;;;4.30;2.23;;;;;;;15.17;74.25;98825.19;5026354;28;20228;-73
2021/05/30 02:24:18;;;;;;;2.47;1.80;;;;;;;15.44;72.78;98824.94;5030198;28;20574;-72
2021/05/30 02:26:45;;;;;;;3.07;1.93;;;;;;;15.25;73.08;98827.66;5031621;28;20198;-73
2021/05/30 02:29:21;;;;;;;2.40;2.00;;;;;;;15.00;74.36;98821.28;5029224;28;20240;-72
2021/05/30 02:31:48;;;;;;;4.63;1.87;;;;;;;15.29;73.06;98835.09;5018456;28;20655;-72
2021/05/30 02:34:16;;;;;;;3.03;2.07;;;;;;;15.21;73.53;98834.50;5029274;28;20331;-73
2021/05/30 02:36:42;;;;;;;2.27;1.60;;;;;;;14.75;75.72;98826.47;5030631;28;20230;-72
2021/05/30 02:39:09;;;;;;;2.03;1.80;;;;;;;14.56;77.67;98826.47;5025252;28;20230;-72
2021/05/30 02:41:36;;;;;;;5.77;1.97;;;;;;;14.79;76.68;98840.34;5030544;28;20648;-73
2021/05/30 02:44:03;;;;;;;2.50;1.93;;;;;;;14.68;77.12;98830.19;5031498;28;20209;-72
2021/05/30 02:46:30;;;;;;;2.23;2.00;;;;;;;14.77;76.02;98826.25;5025140;28;20213;-73
2021/05/30 02:48:57;;;;;;;2.07;1.60;;;;;;;14.73;75.99;98835.75;5033146;28;20261;-73
2021/05/30 02:51:24;;;;;;;3.47;2.10;;;;;;;14.46;76.56;98837.63;5029882;28;20210;-72
2021/05/30 02:53:51;;;;;;;3.50;2.07;;;;;;;14.45;77.19;98841.34;5030757;28;20214;-73
2021/05/30 02:56:18;;;;;;;3.10;1.93;;;;;;;14.71;76.44;98843.22;5030996;28;20570;-72
2021/05/30 02:58:45;;;;;;;2.60;1.80;;;;;;;14.44;77.36;98842.38;5019731;28;20266;-74
2021/05/30 03:01:11;;;;;;;4.33;2.23;;;;;;;14.75;76.05;98837.22;5025172;28;20206;-73
2021/05/30 03:03:38;;;;;;;2.90;2.00;;;;;;;14.90;74.90;98837.81;5029521;28;20214;-73
2021/05/30 03:06:05;;;;;;;3.30;2.07;;;;;;;14.88;74.60;98847.97;5030868;28;20228;-73
2021/05/30 03:08:33;;;;;;;5.13;2.00;;;;;;;14.86;74.36;98847.34;5030583;28;20217;-72
2021/05/30 03:11:00;;;;;;;2.90;2.10;;;;;;;14.65;76.51;98844.03;5029931;28;20309;-73
2021/05/30 03:13:26;;;;;;;2.30;1.80;;;;;;;14.80;75.53;98848.16;5019588;28;20686;-73
2021/05/30 03:15:53;;;;;;;3.57;2.27;;;;;;;14.47;76.81;98854.56;5031084;28;20206;-73
2021/05/30 03:18:20;;;;;;;2.53;1.90;;;;;;;14.53;77.07;98857.25;5030029;28;20275;-73
2021/05/30 03:20:47;;;;;;;3.87;2.07;;;;;;;14.55;77.10;98851.69;5025042;28;20207;-72
2021/05/30 03:23:14;;;;;;;2.13;1.70;;;;;;;14.27;78.67;98840.28;5023341;28;20197;-72
2021/05/30 03:25:41;;;;;;;4.87;2.20;;;;;;;14.15;78.67;98842.72;5027007;28;20690;-73
2021/05/30 03:28:08;;;;;;;3.20;2.10;;;;;;;14.15;78.60;98845.41;5023112;28;20228;-72
2021/05/30 03:30:35;;;;;;;4.43;2.23;;;;;;;14.70;75.87;98842.38;5029974;28;20207;-72
2021/05/30 03:33:02;;;;;;;3.20;2.20;;;;;;;14.52;76.17;98850.25;5029120;28;20205;-72
2021/05/30 03:35:29;;;;;;;4.53;1.97;;;;;;;14.38;78.54;98845.88;5032873;28;20267;-73
2021/05/30 03:37:57;;;;;;;3.60;2.20;;;;;;;14.89;74.63;98857.69;5029296;28;20852;-73
2021/05/30 03:40:29;;;;;;;4.27;2.00;;;;;;;14.61;76.06;98853.53;5028220;28;20287;-73
2021/05/30 03:42:57;;;;;;;5.70;2.20;;;;;;;14.45;76.69;98854.78;5029419;28;20210;-73
2021/05/30 03:45:24;;;;;;;3.50;2.27;;;;;;;14.65;76.28;98849.41;5030788;28;20220;-74
2021/05/30 03:47:52;;;;;;;3.33;2.20;;;;;;;14.41;78.10;98848.16;5024350;28;20202;-73
2021/05/30 03:50:19;;;;;;;3.67;2.23;;;;;;;14.63;76.81;98846.94;5030269;28;20224;-72
2021/05/30 03:52:46;;;;;;;2.33;1.87;;;;;;;14.27;79.78;98848.31;5030149;28;20217;-72
2021/05/30 03:55:14;;;;;;;3.40;2.30;;;;;;;14.64;76.65;98850.47;5029278;28;20218;-73
2021/05/30 03:57:41;;;;;;;4.07;2.20;;;;;;;14.67;77.43;98850.88;5028582;28;20729;-73
2021/05/30 04:00:10;;;;;;;3.90;2.10;;;;;;;14.80;76.33;98850.03;5029703;28;20229;-73
2021/05/30 04:02:37;;;;;;;4.90;2.43;;;;;;;14.62;77.67;98847.13;5023040;28;20303;-73
2021/05/30 04:05:05;;;;;;;3.73;2.50;;;;;;;14.72;77.74;98852.91;5027210;28;20214;-73
2021/05/30 04:07:32;;;;;;;5.53;2.60;;;;;;;14.50;77.86;98857.69;5027815;28;20211;-72
2021/05/30 04:10:03;;;;;;;3.37;2.20;;;;;;;15.12;75.79;98852.72;5029546;28;20227;-73
2021/05/30 04:12:30;;;;;;;4.10;2.70;;;;;;;14.98;77.36;98858.28;5022715;28;20206;-72
2021/05/30 04:14:56;;;;;;;3.33;2.23;;;;;;;15.32;75.12;98852.66;5030795;28;20213;-73
2021/05/30 04:17:24;;;;;;;3.30;2.33;;;;;;;15.44;73.90;98859.91;5030561;28;20321;-72
2021/05/30 04:19:51;;;;;;;4.30;2.77;;;;;;;15.53;72.92;98855.13;5033616;28;20721;-72
2021/05/30 04:22:18;;;;;;;3.50;2.70;;;;;;;15.46;73.21;98857.00;5024442;28;20754;-73
2021/05/30 04:24:44;;;;;;;4.37;2.20;;;;;;;15.52;73.21;98858.84;5034050;28;20206;-73
2021/05/30 04:27:11;;;;;;;3.97;2.37;;;;;;;15.71;72.49;98855.28;5032380;28;20202;-73
2021/05/30 04:29:38;;;;;;;4.77;2.20;;;;;;;15.81;72.21;98861.03;5033265;28;20226;-73
2021/05/30 04:32:06;;;;;;;6.43;2.50;;;;;;;15.78;72.29;98861.44;5029084;28;20202;-72
2021/05/30 04:34:33;;;;;;;3.77;2.43;;;;;;;15.97;71.30;98858.69;5032469;28;20202;-73
2021/05/30 04:37:00;;;;;;;3.20;2.27;;;;;;;16.17;69.79;98863.97;5033292;28;20230;-72
2021/05/30 04:39:30;;;;;;;3.53;2.37;;;;;;;16.28;69.41;98860.59;5032661;28;20226;-73
2021/05/30 04:41:57;;;;;;;3.70;2.60;;;;;;;16.23;68.56;98873.88;5030378;28;20798;-74
2021/05/30 04:44:24;;;;;;;3.83;2.50;;;;;;;16.42;67.32;98875.66;5027532;28;20211;-71
2021/05/30 04:46:51;;;;;;;3.17;2.37;;;;;;;16.74;65.53;98869.22;5030061;28;20255;-74
2021/05/30 04:49:18;;;;;;;8.23;2.70;;;;;;;16.89;64.49;98864.31;5033518;28;20231;-74
2021/05/30 04:51:46;;;;;;;3.57;2.60;;;;;;;17.34;63.10;98868.47;5033113;28;20252;-78
2021/05/30 04:54:12;;;;;;;2.87;2.40;;;;;;;17.63;60.67;98875.91;5031001;28;20210;-77
2021/05/30 04:56:39;;;;;;;5.43;2.50;;;;;;;17.81;59.27;98871.31;5033641;28;20238;-78
2021/05/30 04:59:06;;;;;;;3.30;2.13;;;;;;;17.78;58.32;98870.94;5035273;28;20230;-77
2021/05/30 05:01:33;;;;;;;3.73;2.77;;;;;;;18.06;57.43;98869.34;5032369;28;20293;-74
2021/05/30 05:04:00;;;;;;;4.40;2.87;;;;;;;16.77;61.74;98866.09;5031029;28;20368;-75
2021/05/30 05:06:27;;;;;;;4.90;2.67;;;;;;;17.34;60.27;98865.78;5032562;28;20207;-72
2021/05/30 05:08:54;;;;;;;4.17;2.30;;;;;;;17.23;59.52;98867.31;5027792;28;20226;-73
2021/05/30 05:11:21;;;;;;;3.60;2.60;;;;;;;18.52;55.84;98868.72;5031902;28;20212;-73
2021/05/30 05:13:48;;;;;;;4.17;2.37;;;;;;;18.48;54.33;98875.63;5032986;28;20208;-73
2021/05/30 05:16:15;;;;;;;4.33;2.83;;;;;;;17.62;58.04;98874.22;5033427;28;20210;-77
2021/05/30 05:18:42;;;;;;;3.53;2.40;;;;;;;18.04;57.98;98871.44;5032793;28;20287;-72
2021/05/30 05:21:08;;;;;;;3.43;2.67;;;;;;;17.75;57.84;98868.69;5029901;28;20287;-70
2021/05/30 05:23:35;;;;;;;3.30;2.63;;;;;;;17.61;58.38;98872.56;5031754;28;20257;-70
2021/05/30 05:26:04;;;;;;;4.90;2.57;;;;;;;18.34;56.02;98871.50;5041010;28;20636;-71
2021/05/30 05:28:32;;;;;;;4.33;2.63;;;;;;;18.32;54.36;98879.81;5033118;28;20218;-75
2021/05/30 05:30:59;;;;;;;5.43;3.20;;;;;;;19.02;51.81;98878.97;5033396;28;20206;-76
2021/05/30 05:33:27;;;;;;;4.73;2.93;;;;;;;17.82;56.47;98875.66;5033304;28;20670;-75
2021/05/30 05:35:54;;;;;;;3.50;2.63;;;;;;;18.94;52.66;98881.19;5032168;28;20684;-76
2021/05/30 05:38:21;;;;;;;3.77;2.50;;;;;;;18.89;51.17;98886.47;5032874;28;20229;-76
2021/05/30 05:40:48;;;;;;;4.00;3.00;;;;;;;19.50;50.13;98878.78;5029305;28;20222;-79
2021/05/30 05:43:15;;;;;;;5.27;2.70;;;;;;;18.61;52.30;98880.88;5034957;28;20206;-79
2021/05/30 05:45:42;;;;;;;3.90;2.50;;;;;;;19.40;50.16;98878.56;5028742;28;20207;-76
2021/05/30 05:48:13;;;;;;;4.83;2.60;;;;;;;18.81;50.66;98892.22;5026383;28;20730;-77
2021/05/30 05:50:40;;;;;;;3.90;2.20;;;;;;;18.47;53.63;98884.81;5033213;28;20209;-79
2021/05/30 05:53:07;;;;;;;5.70;2.63;;;;;;;17.78;55.82;98882.56;5040456;28;20615;-76
2021/05/30 05:55:34;;;;;;;4.03;2.47;;;;;;;19.33;50.20;98888.66;5025455;28;20660;-83
2021/05/30 05:58:01;;;;;;;4.80;2.80;;;;;;;18.43;53.88;98883.63;5027256;28;20224;-76
2021/05/30 06:00:30;;;;;;;3.87;2.43;;;;;;;19.25;51.79;98880.91;5032643;28;20833;-79
2021/05/30 06:02:56;;;;;;;2.80;2.30;;;;;;;19.09;50.50;98885.09;5032502;28;20213;-76
2021/05/30 06:05:24;;;;;;;5.00;2.50;;;;;;;19.60;50.33;98881.72;5030185;28;20211;-74
2021/05/30 06:07:52;;;;;;;4.33;2.53;;;;;;;18.61;52.94;98884.41;5028278;28;20204;-79
2021/05/30 06:10:22;;;;;;;3.27;2.17;;;;;;;19.16;51.11;98879.56;5028736;28;20237;-79
2021/05/30 06:12:49;;;;;;;6.80;4.30;;;;;;;19.13;49.84;98891.69;5035413;28;20199;-77
2021/05/30 06:15:16;;;;;;;5.73;3.10;;;;;;;18.02;55.97;98881.66;5032783;28;20227;-78
2021/05/30 06:17:49;;;;;;;2.90;2.43;;;;;;;19.59;49.62;98890.88;5033612;28;20315;-77
2021/05/30 06:20:16;;;;;;;5.10;2.60;;;;;;;19.11;50.35;98884.84;5033620;28;20574;-79
2021/05/30 06:22:43;;;;;;;3.67;2.50;;;;;;;18.60;52.44;98895.44;5031301;28;20290;-74
2021/05/30 06:25:11;;;;;;;2.73;2.30;;;;;;;19.29;49.73;98888.31;5031713;28;20207;-77
2021/05/30 06:27:38;;;;;;;3.73;2.50;;;;;;;19.94;47.89;98897.06;5029528;28;20199;-76
2021/05/30 06:30:06;;;;;;;4.17;2.63;;;;;;;19.55;47.96;98887.03;5030365;28;20258;-73
2021/05/30 06:32:33;;;;;;;3.80;2.40;;;;;;;18.25;51.92;98889.03;5031841;28;20211;-76
2021/05/30 06:35:03;;;;;;;2.90;2.30;;;;;;;19.52;49.83;98882.06;5031936;28;20206;-73
2021/05/30 06:37:30;;;;;;;3.07;2.47;;;;;;;18.82;51.60;98885.75;5027072;28;20260;-74
2021/05/30 06:39:57;;;;;;;5.37;2.60;;;;;;;18.40;52.34;98884.91;5029165;28;20719;-74
2021/05/30 06:42:23;;;;;;;5.10;2.50;;;;;;;19.17;50.00;98875.78;5031827;28;20572;-74
2021/05/30 06:44:50;;;;;;;4.63;2.60;;;;;;;18.85;51.52;98890.69;5030755;28;20205;-73
2021/05/30 06:47:17;;;;;;;4.60;3.00;;;;;;;18.12;53.36;98881.09;5031255;28;20211;-73
2021/05/30 06:49:44;;;;;;;5.43;2.73;;;;;;;19.16;51.24;98880.38;5029930;28;20228;-71
2021/05/30 06:52:11;;;;;;;3.90;2.30;;;;;;;19.71;47.75;98883.59;5030878;28;20209;-74
2021/05/30 06:54:38;;;;;;;4.37;2.70;;;;;;;19.67;47.53;98890.53;5031833;28;20205;-77
2021/05/30 06:57:06;;;;;;;4.10;2.40;;;;;;;18.51;50.44;98891.41;5031404;28;20235;-71
2021/05/30 06:59:33;;;;;;;3.53;2.30;;;;;;;19.58;47.96;98881.13;5031406;28;20285;-70
2021/05/30 07:02:00;;;;;;;3.30;2.30;;;;;;;20.06;46.42;98879.72;5029275;28;20750;-78
2021/05/30 07:04:28;;;;;;;3.60;2.40;;;;;;;18.99;49.46;98878.63;5025238;28;20625;-78
2021/05/30 07:06:55;;;;;;;3.37;2.47;;;;;;;19.66;47.53;98881.56;5031670;28;20207;-75
2021/05/30 07:09:23;;;;;;;3.77;2.50;;;;;;;19.85;47.27;98883.09;5023529;28;20227;-77
2021/05/30 07:11:49;;;;;;;2.90;2.30;;;;;;;20.86;44.22;98894.03;5036226;28;20625;-74
2021/05/30 07:14:16;;;;;;;4.77;2.70;;;;;;;20.62;45.54;98896.03;5028860;28;20268;-75
2021/05/30 07:16:43;;;;;;;6.53;2.67;;;;;;;20.82;43.24;98901.03;5032488;28;20215;-81
2021/05/30 07:19:10;;;;;;;3.13;2.37;;;;;;;20.16;44.56;98895.41;5036120;28;20226;-76
2021/05/30 07:21:37;;;;;;;3.90;2.40;;;;;;;19.51;46.77;98893.97;5036213;28;20266;-72
2021/05/30 07:24:05;;;;;;;3.20;2.00;;;;;;;20.23;43.98;98896.09;5031757;28;20661;-74
2021/05/30 07:26:34;;;;;;;3.57;2.27;;;;;;;21.01;43.13;98897.88;5030774;28;20214;-74
2021/05/30 07:29:01;;;;;;;5.17;2.00;;;;;;;21.60;41.42;98899.06;5032531;28;20226;-85
2021/05/30 07:31:28;;;;;;;2.90;2.10;;;;;;;21.30;42.40;98902.16;5028324;28;20752;-82
2021/05/30 07:33:55;;;;;;;3.23;2.40;;;;;;;21.58;40.08;98893.88;5033322;28;20214;-75
2021/05/30 07:36:21;;;;;;;3.73;2.20;;;;;;;20.37;42.79;98900.19;5028986;28;20206;-79
2021/05/30 07:38:48;;;;;;;3.70;2.17;;;;;;;21.90;39.04;98905.81;5024132;28;22058;-77
2021/05/30 07:41:15;;;;;;;3.43;2.20;;;;;;;22.45;38.41;98911.13;5030943;28;20247;-76
2021/05/30 07:43:43;;;;;;;3.20;2.43;;;;;;;22.13;39.48;98907.44;5031129;28;20214;-76
2021/05/30 07:46:09;;;;;;;3.80;2.57;;;;;;;21.29;40.83;98905.13;5028824;28;20236;-76
2021/05/30 07:48:36;;;;;;;2.87;2.33;;;;;;;20.58;40.92;98907.63;5031779;28;20222;-75
2021/05/30 07:51:04;;;;;;;2.83;2.30;;;;;;;21.63;39.10;98910.25;5037369;28;20205;-77
2021/05/30 07:53:33;;;;;;;5.43;2.50;;;;;;;22.95;37.81;98912.47;5038328;28;20207;-84
2021/05/30 07:56:00;;;;;;;4.77;2.20;;;;;;;22.97;36.42;98917.66;5037631;28;20658;-78
2021/05/30 07:58:27;;;;;;;4.43;2.70;;;;;;;22.20;37.17;98914.31;5044385;28;20232;-79
2021/05/30 08:00:55;;;;;;;4.87;2.33;;;;;;;21.52;37.76;98915.78;5035862;28;20207;-80
2021/05/30 08:03:22;;;;;;;2.10;1.83;;;;;;;22.08;36.21;98918.25;5038754;28;20210;-78
2021/05/30 08:05:49;;;;;;;2.83;1.80;;;;;;;21.61;35.11;98930.59;5036714;28;20278;-78
2021/05/30 08:08:17;;;;;;;2.40;1.80;;;;;;;22.88;33.33;98928.22;5036596;28;20276;-77
2021/05/30 08:10:44;;;;;;;5.57;1.80;;;;;;;21.44;34.78;98922.44;5035638;28;20210;-79
2021/05/30 08:13:11;;;;;;;2.43;1.80;;;;;;;22.55;33.29;98930.31;5037664;28;20261;-78
2021/05/30 08:15:38;;;;;;;4.20;1.77;;;;;;;22.41;33.02;98934.44;5031337;28;20354;-79
2021/05/30 08:18:06;;;;;;;4.33;1.77;;;;;;;22.68;32.39;98938.88;5036031;28;20228;-78
2021/05/30 08:20:33;;;;;;;2.30;1.57;;;;;;;22.14;32.85;98928.94;5035210;28;20240;-78
2021/05/30 08:22:59;;;;;;;2.07;1.60;;;;;;;21.90;33.72;98927.56;5035197;28;20287;-78
2021/05/30 08:25:27;;;;;;;4.30;1.97;;;;;;;22.34;33.39;98928.38;5044952;28;20217;-79
2021/05/30 08:27:53;;;;;;;2.67;1.80;;;;;;;22.94;32.19;98927.16;5035988;28;20711;-76
2021/05/30 08:30:21;;;;;;;3.33;1.77;;;;;;;22.37;32.68;98941.47;5037182;28;20208;-78
2021/05/30 08:32:48;;;;;;;2.87;1.93;;;;;;;21.78;32.15;98936.88;5029115;28;20208;-74
2021/05/30 08:35:17;;;;;;;2.37;1.87;;;;;;;22.26;32.53;98928.81;5034864;28;20735;-74
2021/05/30 08:37:44;;;;;;;2.53;1.60;;;;;;;22.33;32.27;98926.72;5034791;28;20243;-76
2021/05/30 08:40:14;;;;;;;3.37;1.70;;;;;;;22.92;30.55;98936.69;5042705;28;20234;-76
2021/05/30 08:42:41;;;;;;;2.37;1.50;;;;;;;21.53;31.20;98941.91;5028865;28;20201;-73
2021/05/30 08:45:09;;;;;;;2.00;1.50;;;;;;;22.01;31.09;98933.94;5035289;28;20832;-74
2021/05/30 08:47:36;;;;;;;2.23;1.53;;;;;;;22.37;30.57;98925.16;5033763;28;20201;-75
2021/05/30 08:50:04;;;;;;;3.53;1.90;;;;;;;22.51;31.47;98926.44;5036477;28;20226;-78
2021/05/30 08:52:33;;;;;;;2.93;1.90;;;;;;;23.79;29.72;98933.34;5034817;28;20227;-74
2021/05/30 08:55:01;;;;;;;2.47;1.80;;;;;;;24.31;29.24;98919.72;5045381;28;20286;-81
2021/05/30 08:57:28;;;;;;;2.47;1.73;;;;;;;24.04;28.94;98933.53;5042739;28;20221;-76
2021/05/30 08:59:57;;;;;;;1.77;1.53;;;;;;;23.67;28.81;98943.59;5042785;28;20226;-79
2021/05/30 09:02:24;;;;;;;3.43;1.80;;;;;;;23.91;28.89;98938.63;5038900;28;20235;-75
2021/05/30 09:04:52;;;;;;;2.90;1.50;;;;;;;23.78;28.08;98939.91;5036009;28;20544;-78
2021/05/30 09:07:19;;;;;;;2.20;1.83;;;;;;;23.21;30.30;98936.16;5031722;28;20198;-80
2021/05/30 09:09:48;;;;;;;3.13;2.00;;;;;;;23.59;29.53;98935.09;5019546;28;20242;-76
2021/05/30 09:12:22;;;;;;;4.27;2.03;;;;;;;22.09;30.21;98934.31;5029228;28;20206;-73
2021/05/30 09:14:51;;;;;;;2.93;1.90;;;;;;;23.66;29.08;98933.00;5025230;28;20211;-75
2021/05/30 09:17:18;;;;;;;2.23;1.50;;;;;;;24.00;28.25;98937.03;5025851;28;20576;-76
2021/05/30 09:19:47;;;;;;;2.53;1.67;;;;;;;22.70;28.96;98939.44;5032816;28;20277;-75
2021/05/30 09:22:26;;;;;;;3.30;1.80;;;;;;;23.48;28.27;98928.78;5031552;28;20206;-74
2021/05/30 09:25:21;;;;;;;2.50;1.60;;;;;;;24.63;26.86;98934.88;5027702;28;20249;-74
2021/05/30 09:28:01;;;;;;;2.27;1.60;;;;;;;23.43;27.57;98933.34;5014214;28;20578;-75
2021/05/30 09:30:39;;;;;;;5.37;2.00;;;;;;;22.99;28.20;98940.00;5020565;28;20286;-75
2021/05/30 09:33:08;;;;;;;2.67;1.50;;;;;;;23.69;28.28;98925.09;5025491;28;20206;-74
2021/05/30 09:36:01;;;;;;;1.40;1.30;;;;;;;23.46;28.96;98913.75;5027457;28;20337;-75
2021/05/30 09:38:32;;;;;;;2.50;1.47;;;;;;;23.86;28.33;98924.94;5028747;28;20228;-74
2021/05/30 09:41:01;;;;;;;1.73;1.40;;;;;;;24.12;29.38;98921.28;5038392;28;20234;-74
2021/05/30 09:43:31;;;;;;;2.50;2.00;;;;;;;24.13;28.69;98921.03;5026848;28;20656;-75
2021/05/30 09:46:03;;;;;;;2.73;1.90;;;;;;;24.11;28.21;98936.03;5033703;28;20269;-74
2021/05/30 09:48:31;;;;;;;4.07;1.87;;;;;;;22.22;30.32;98930.41;5026810;28;20226;-74
2021/05/30 09:51:06;;;;;;;3.50;2.33;;;;;;;23.32;29.82;98935.19;5020076;28;20802;-74
2021/05/30 09:53:35;;;;;;;2.20;1.70;;;;;;;23.04;28.89;98934.59;5030381;28;20213;-74
2021/05/30 09:56:02;;;;;;;2.70;1.80;;;;;;;23.80;28.86;98917.78;5033112;28;20203;-74
2021/05/30 09:58:29;;;;;;;2.20;1.70;;;;;;;23.28;28.99;98935.94;5028120;28;20581;-74
2021/05/30 10:01:01;;;;;;;2.40;1.73;;;;;;;23.11;29.29;98933.31;5032086;28;20213;-74
2021/05/30 10:03:29;;;;;;;4.53;1.53;;;;;;;24.37;28.44;98924.13;5031693;28;20214;-74
2021/05/30 10:05:56;;;;;;;3.13;1.80;;;;;;;23.46;29.70;98927.38;5025063;28;20199;-74
2021/05/30 10:08:23;;;;;;;2.43;1.63;;;;;;;24.63;27.79;98926.69;5031795;28;20603;-74
2021/05/30 10:10:51;;;;;;;2.63;1.90;;;;;;;23.53;28.73;98926.09;5027408;28;20686;-75
2021/05/30 10:13:19;;;;;;;3.97;2.00;;;;;;;22.97;28.75;98936.72;5031292;28;20296;-74
2021/05/30 10:15:45;;;;;;;2.90;1.73;;;;;;;23.71;28.36;98924.84;5031478;28;20240;-74
2021/05/30 10:18:24;;;;;;;2.90;1.80;;;;;;;23.84;28.05;98924.38;5031208;28;20247;-74
2021/05/30 10:20:52;;;;;;;3.17;1.80;;;;;;;22.63;28.40;98930.66;5027594;28;20232;-74
2021/05/30 10:23:21;;;;;;;2.97;1.50;;;;;;;23.77;26.66;98938.22;5027011;28;20210;-74
2021/05/30 10:25:48;;;;;;;2.37;1.50;;;;;;;24.52;26.49;98921.47;5035018;28;20213;-74
2021/05/30 10:28:18;;;;;;;1.90;1.67;;;;;;;23.94;27.90;98927.19;5024505;28;20316;-74
2021/05/30 10:30:47;;;;;;;2.63;1.60;;;;;;;23.63;27.79;98930.78;5032338;28;20289;-74
2021/05/30 10:33:16;;;;;;;2.47;1.63;;;;;;;24.78;27.55;98920.47;5031694;28;20218;-73
2021/05/30 10:35:44;;;;;;;3.43;1.90;;;;;;;23.58;28.78;98915.22;5029092;28;20225;-75
2021/05/30 10:38:12;;;;;;;1.87;1.63;;;;;;;23.39;28.42;98913.16;5030086;28;20234;-74
2021/05/30 10:40:41;;;;;;;3.10;1.90;;;;;;;24.22;28.24;98919.41;5027211;28;20274;-74
2021/05/30 10:43:20;;;;;;;2.40;1.80;;;;;;;24.06;27.21;98914.19;5031741;28;20220;-73
2021/05/30 10:46:06;;;;;;;3.03;1.80;;;;;;;23.91;27.84;98912.16;5028810;28;20221;-74
2021/05/30 10:48:34;;;;;;;4.40;1.73;;;;;;;22.88;28.26;98920.03;5030933;28;20323;-75
2021/05/30 10:54:11;;;;;;;2.23;1.60;;;;;;;24.49;27.02;98909.19;5027308;28;20285;-74
2021/05/30 10:56:40;;;;;;;2.80;1.90;;;;;;;24.29;26.41;98916.44;5018086;28;20241;-74
2021/05/30 10:59:38;;;;;;;2.17;1.80;;;;;;;25.44;24.92;98914.78;5030785;28;20226;-74
2021/05/30 11:02:13;;;;;;;2.00;1.60;;;;;;;26.21;23.60;98920.72;5028683;28;20214;-74
2021/05/30 11:04:40;;;;;;;2.93;1.67;;;;;;;25.98;22.47;98942.38;5028661;28;20210;-74
2021/05/30 11:07:40;;;;;;;2.53;1.70;;;;;;;24.92;24.89;98922.41;5030791;28;20658;-74
2021/05/30 11:10:12;;;;;;;3.10;1.70;;;;;;;25.43;24.23;98923.31;5023381;28;20364;-74
2021/05/30 11:12:55;;;;;;;2.73;1.80;;;;;;;24.07;25.06;98910.34;5034296;28;20217;-73
2021/05/30 11:15:30;;;;;;;2.57;1.77;;;;;;;24.18;24.80;98912.84;5030868;28;20663;-73
2021/05/30 11:17:59;;;;;;;3.60;1.77;;;;;;;25.57;23.87;98903.31;5025967;28;20210;-74
2021/05/30 11:20:28;;;;;;;2.13;1.60;;;;;;;24.32;25.00;98905.81;5026712;28;20229;-74
2021/05/30 11:22:58;;;;;;;2.10;1.67;;;;;;;25.80;24.57;98901.91;5025670;28;20206;-74
2021/05/30 11:25:32;;;;;;;5.20;1.67;;;;;;;24.87;25.27;98897.81;5027512;28;20214;-74
2021/05/30 11:28:01;;;;;;;6.20;1.80;;;;;;;24.29;24.97;98898.19;5026026;28;20819;-74
2021/05/30 11:30:36;;;;;;;2.87;1.47;;;;;;;25.02;24.72;98895.09;5028932;28;20944;-74
2021/05/30 11:33:03;;;;;;;3.97;1.90;;;;;;;24.96;24.00;98903.56;5031755;28;20556;-74
2021/05/30 11:35:30;;;;;;;1.73;1.53;;;;;;;24.55;24.85;98894.44;5029025;28;20199;-75
2021/05/30 11:37:57;;;;;;;2.47;1.60;;;;;;;24.67;23.95;98896.97;5030037;28;20230;-74
2021/05/30 11:40:25;;;;;;;4.07;1.80;;;;;;;24.40;24.73;98899.84;5025479;28;20656;-74
2021/05/30 11:42:52;;;;;;;4.60;1.80;;;;;;;24.62;25.12;98895.03;5034576;23;20238;-70